Time;durP1;ratioP1;P1;durP2;ratioP2;P2;SDS_P1;SDS_P2;PMS_P1;PMS_P2;Temp;Humidity;BMP_temperature;BMP_pressure;BME280_temperature;BME280_humidity;BME280_pressure;Samples;Min_cycle;Max_cycle;Signal;HPM_P1;HPM_P2
2021/10/01 00:01:08;;;;;;;5.10;3.95;;;20.80;96.70;;;;;;5084078;28;20112;-77
2021/10/01 00:03:37;;;;;;;5.30;3.95;;;20.70;96.70;;;;;;5083880;28;20047;-77
2021/10/01 00:06:09;;;;;;;5.35;4.18;;;20.80;96.70;;;;;;5097580;28;20053;-76
2021/10/01 00:08:37;;;;;;;5.50;4.50;;;20.80;96.70;;;;;;5099465;28;20337;-76
2021/10/01 00:11:05;;;;;;;8.00;4.60;;;20.70;96.70;;;;;;5085002;28;20668;-76
2021/10/01 00:13:33;;;;;;;5.93;4.22;;;20.70;96.70;;;;;;5083969;28;20695;-77
2021/10/01 00:16:02;;;;;;;6.32;4.35;;;20.70;96.70;;;;;;5104295;28;20032;-77
2021/10/01 00:18:30;;;;;;;5.68;3.80;;;20.70;96.70;;;;;;5104923;28;20040;-77
2021/10/01 00:20:59;;;;;;;4.82;3.88;;;20.70;96.70;;;;;;5103111;28;20069;-77
2021/10/01 00:23:29;;;;;;;5.43;3.72;;;20.80;96.70;;;;;;5102084;28;20470;-75
2021/10/01 00:25:58;;;;;;;6.18;4.22;;;20.70;96.70;;;;;;5085802;28;20039;-76
2021/10/01 00:28:26;;;;;;;5.10;3.90;;;20.60;96.70;;;;;;5104772;28;20055;-76
2021/10/01 00:30:55;;;;;;;6.00;4.03;;;20.60;96.70;;;;;;5104041;28;20397;-76
2021/10/01 00:33:23;;;;;;;5.50;4.47;;;20.60;96.70;;;;;;5085254;28;20059;-76
2021/10/01 00:35:51;;;;;;;6.45;3.70;;;20.60;96.70;;;;;;5103479;28;20048;-76
2021/10/01 00:38:19;;;;;;;6.55;4.15;;;20.60;96.70;;;;;;5067946;28;20044;-76
2021/10/01 00:40:49;;;;;;;5.43;4.28;;;20.60;96.70;;;;;;5083407;28;20050;-76
2021/10/01 00:43:17;;;;;;;5.35;4.40;;;20.60;96.70;;;;;;5104155;28;20046;-76
2021/10/01 00:45:46;;;;;;;5.50;4.18;;;20.60;96.70;;;;;;5102578;28;20378;-76
2021/10/01 00:48:14;;;;;;;4.88;3.80;;;20.50;96.70;;;;;;5104141;28;20513;-76
2021/10/01 00:50:42;;;;;;;4.82;3.88;;;20.60;96.70;;;;;;5065424;28;20040;-76
2021/10/01 00:53:10;;;;;;;5.13;3.58;;;20.60;96.70;;;;;;5102583;28;20051;-76
2021/10/01 00:55:40;;;;;;;6.18;3.85;;;20.50;96.70;;;;;;5102365;28;20423;-76
2021/10/01 00:58:10;;;;;;;5.00;3.75;;;20.40;96.70;;;;;;5087804;28;20485;-76
2021/10/01 01:01:25;;;;;;;4.63;3.38;;;20.50;96.70;;;;;;5085916;28;20043;-76
2021/10/01 01:03:28;;;;;;;5.35;3.38;;;20.50;96.70;;;;;;5091911;28;20063;-77
2021/10/01 01:06:08;;;;;;;6.38;3.50;;;20.40;96.70;;;;;;5084159;28;20166;-76
2021/10/01 01:08:47;;;;;;;5.93;3.90;;;20.40;96.70;;;;;;5095501;28;20047;-76
2021/10/01 01:11:26;;;;;;;4.05;3.25;;;20.50;96.70;;;;;;5078633;28;20044;-76
2021/10/01 01:14:03;;;;;;;4.72;3.67;;;20.50;96.70;;;;;;5103767;28;20040;-76
2021/10/01 01:16:35;;;;;;;4.95;3.58;;;20.50;96.70;;;;;;5101809;28;20039;-76
2021/10/01 01:19:09;;;;;;;5.05;3.70;;;20.40;96.70;;;;;;5085184;28;20535;-76
2021/10/01 01:21:50;;;;;;;4.65;3.22;;;20.40;96.70;;;;;;5084722;28;20130;-77
2021/10/01 01:24:55;;;;;;;6.35;3.60;;;20.40;96.70;;;;;;5085663;28;20131;-77
2021/10/01 01:27:43;;;;;;;5.97;3.60;;;20.30;96.70;;;;;;5082696;28;20035;-76
2021/10/01 01:30:15;;;;;;;4.95;3.25;;;20.40;96.70;;;;;;5088100;28;20093;-76
2021/10/01 01:32:58;;;;;;;6.20;3.95;;;20.30;96.70;;;;;;5069608;28;20048;-77
2021/10/01 01:35:33;;;;;;;5.70;3.72;;;20.30;96.70;;;;;;5103323;28;20591;-77
2021/10/01 01:38:07;;;;;;;4.45;3.22;;;20.30;96.70;;;;;;5078893;28;20056;-77
2021/10/01 01:40:42;;;;;;;4.30;3.40;;;20.20;96.70;;;;;;5084142;28;20442;-76
2021/10/01 01:43:12;;;;;;;5.50;3.85;;;20.20;96.70;;;;;;5084981;28;20152;-77
2021/10/01 01:45:42;;;;;;;7.30;4.00;;;20.20;96.70;;;;;;5084935;28;20050;-77
2021/10/01 01:48:13;;;;;;;5.53;3.00;;;20.10;96.70;;;;;;5101971;28;20454;-77
2021/10/01 01:50:43;;;;;;;4.78;3.67;;;20.10;96.70;;;;;;5085887;28;20036;-77
2021/10/01 01:53:13;;;;;;;6.38;3.70;;;20.10;96.70;;;;;;5084845;28;20051;-77
2021/10/01 01:55:44;;;;;;;7.18;3.90;;;20.10;96.70;;;;;;5081706;28;20505;-77
2021/10/01 01:58:14;;;;;;;5.63;3.22;;;20.00;96.70;;;;;;5101096;27;20044;-77
2021/10/01 02:01:13;;;;;;;6.60;3.75;;;20.00;96.70;;;;;;5086146;28;20047;-77
2021/10/01 02:04:05;;;;;;;4.97;4.00;;;19.90;96.70;;;;;;5083075;28;20957;-77
2021/10/01 02:06:34;;;;;;;5.35;3.33;;;19.90;96.70;;;;;;5084009;28;20052;-77
2021/10/01 02:09:03;;;;;;;4.20;3.13;;;19.80;96.70;;;;;;5071834;28;20028;-77
2021/10/01 02:11:37;;;;;;;5.38;3.50;;;19.80;96.70;;;;;;5084860;28;20105;-77
2021/10/01 02:14:07;;;;;;;3.83;3.35;;;19.80;96.70;;;;;;5084705;28;20040;-77
2021/10/01 02:16:37;;;;;;;5.20;3.65;;;19.80;96.70;;;;;;5084194;28;20454;-77
2021/10/01 02:19:07;;;;;;;4.45;3.13;;;19.80;96.70;;;;;;5084568;28;20040;-77
2021/10/01 02:21:36;;;;;;;6.07;3.35;;;19.80;96.70;;;;;;5083490;28;20382;-77
2021/10/01 02:24:05;;;;;;;4.18;3.35;;;19.80;96.70;;;;;;5094498;28;20571;-77
2021/10/01 02:26:37;;;;;;;5.82;3.72;;;19.70;96.70;;;;;;5082519;28;20118;-77
2021/10/01 02:33:26;;;;;;;4.38;3.53;;;19.60;96.70;;;;;;5040735;28;20084;-76
2021/10/01 02:35:57;;;;;;;6.38;3.63;;;19.40;96.70;;;;;;5008464;28;20045;-76
2021/10/01 02:38:25;;;;;;;5.35;3.65;;;19.40;96.70;;;;;;5024930;28;20085;-77
2021/10/01 02:40:55;;;;;;;4.80;3.35;;;19.30;96.70;;;;;;5024987;28;20111;-77
2021/10/01 02:43:25;;;;;;;6.35;3.60;;;19.20;96.70;;;;;;5009627;28;20049;-76
2021/10/01 02:45:55;;;;;;;5.53;3.78;;;19.10;96.70;;;;;;5036177;28;20208;-76
2021/10/01 02:48:25;;;;;;;5.47;3.72;;;19.10;96.70;;;;;;5025476;28;20237;-76
2021/10/01 02:51:03;;;;;;;6.70;3.70;;;19.10;96.70;;;;;;5009266;28;20179;-76
2021/10/01 02:53:50;;;;;;;4.68;3.50;;;19.00;96.70;;;;;;5019126;28;20065;-76
2021/10/01 02:56:24;;;;;;;5.40;3.60;;;19.00;96.70;;;;;;5006119;28;20641;-76
2021/10/01 02:58:58;;;;;;;5.30;3.33;;;18.90;96.70;;;;;;5006404;28;21126;-76
2021/10/01 03:01:30;;;;;;;4.18;3.47;;;18.80;96.70;;;;;;5003943;28;20049;-76
2021/10/01 03:04:04;;;;;;;4.65;3.03;;;18.80;96.70;;;;;;5068369;28;20086;-76
2021/10/01 03:06:40;;;;;;;5.53;3.50;;;18.80;96.70;;;;;;5075460;28;20052;-76
2021/10/01 03:09:11;;;;;;;5.05;3.30;;;18.90;96.70;;;;;;5062407;28;20071;-76
2021/10/01 03:11:42;;;;;;;4.70;3.60;;;18.90;96.70;;;;;;5065701;28;20040;-76
2021/10/01 03:14:15;;;;;;;5.43;3.38;;;19.00;96.70;;;;;;5046898;28;20056;-76
2021/10/01 03:16:48;;;;;;;5.28;3.38;;;19.00;96.70;;;;;;5078311;28;20874;-77
2021/10/01 03:19:22;;;;;;;6.28;3.05;;;19.00;96.70;;;;;;5065035;28;20051;-76
2021/10/01 03:21:56;;;;;;;4.22;3.20;;;19.00;96.70;;;;;;5044690;28;20501;-76
2021/10/01 03:24:27;;;;;;;3.35;2.90;;;19.00;96.70;;;;;;5064093;28;20040;-76
2021/10/01 03:26:58;;;;;;;6.50;3.40;;;18.90;96.70;;;;;;5059747;28;20045;-77
2021/10/01 03:29:32;;;;;;;4.65;3.20;;;18.80;96.70;;;;;;5064757;28;20064;-76
2021/10/01 03:32:04;;;;;;;6.65;3.60;;;18.80;96.70;;;;;;5065576;28;20053;-76
2021/10/01 03:34:35;;;;;;;5.80;3.67;;;18.90;96.70;;;;;;5061963;28;20083;-76
2021/10/01 03:37:12;;;;;;;5.90;3.38;;;18.90;96.70;;;;;;5062276;28;20090;-76
2021/10/01 03:39:42;;;;;;;5.18;3.35;;;18.90;96.70;;;;;;5063749;28;20485;-76
2021/10/01 03:42:13;;;;;;;6.32;3.30;;;18.90;96.70;;;;;;5063870;28;20064;-77
2021/10/01 03:44:43;;;;;;;5.40;3.67;;;18.80;96.70;;;;;;5062243;28;20037;-76
2021/10/01 03:47:12;;;;;;;4.93;3.38;;;18.80;96.70;;;;;;5063403;28;20040;-76
2021/10/01 03:49:41;;;;;;;5.80;3.75;;;18.70;96.70;;;;;;5072878;28;20540;-76
2021/10/01 03:52:13;;;;;;;4.15;3.70;;;18.70;96.70;;;;;;5072489;28;20059;-77
2021/10/01 03:54:47;;;;;;;4.25;3.63;;;18.60;96.70;;;;;;5084151;28;20044;-76
2021/10/01 03:57:18;;;;;;;7.07;4.40;;;18.50;96.70;;;;;;5082758;28;20044;-77
2021/10/01 03:59:50;;;;;;;4.88;3.65;;;18.50;96.70;;;;;;5082169;28;20043;-77
2021/10/01 04:02:20;;;;;;;6.00;4.00;;;18.50;96.70;;;;;;5081112;28;20423;-77
2021/10/01 04:04:51;;;;;;;6.63;4.32;;;18.40;96.70;;;;;;5076440;28;20189;-77
2021/10/01 04:07:23;;;;;;;4.85;3.42;;;18.30;96.70;;;;;;5082792;28;20058;-76
2021/10/01 04:09:53;;;;;;;7.10;3.90;;;18.30;96.70;;;;;;5082195;28;20521;-77
2021/10/01 04:12:23;;;;;;;5.78;3.97;;;18.30;96.70;;;;;;5065314;28;20044;-76
2021/10/01 04:14:53;;;;;;;5.75;4.32;;;18.30;96.70;;;;;;5084322;28;20036;-76
2021/10/01 04:17:22;;;;;;;6.05;4.05;;;18.30;96.70;;;;;;5082942;28;20044;-76
2021/10/01 04:19:51;;;;;;;6.63;4.05;;;18.20;96.70;;;;;;5076769;28;20039;-77
2021/10/01 04:22:23;;;;;;;7.80;4.40;;;18.20;96.70;;;;;;5087125;28;20047;-77
2021/10/01 04:25:21;;;;;;;6.35;3.60;;;18.20;96.70;;;;;;5045795;28;20048;-77
2021/10/01 04:27:51;;;;;;;5.40;3.65;;;18.10;96.70;;;;;;5081993;28;20044;-76
2021/10/01 04:30:19;;;;;;;5.32;3.90;;;18.10;96.70;;;;;;5065891;28;20052;-77
2021/10/01 04:32:59;;;;;;;8.02;4.07;;;18.10;96.70;;;;;;5095116;28;20099;-77
2021/10/01 04:35:29;;;;;;;7.90;4.22;;;18.10;96.70;;;;;;5078950;28;20123;-77
2021/10/01 04:38:00;;;;;;;5.97;3.72;;;18.00;96.70;;;;;;5080507;28;20032;-76
2021/10/01 04:40:28;;;;;;;5.00;3.95;;;18.00;96.70;;;;;;5081085;28;20129;-77
2021/10/01 04:42:57;;;;;;;8.35;3.95;;;18.00;96.70;;;;;;5065228;28;20485;-76
2021/10/01 04:45:27;;;;;;;7.10;4.60;;;18.00;96.70;;;;;;5082314;28;20044;-79
2021/10/01 04:47:57;;;;;;;4.97;4.32;;;18.00;96.70;;;;;;5067154;28;20044;-77
2021/10/01 04:50:27;;;;;;;6.13;4.28;;;18.00;96.70;;;;;;5062157;28;20043;-77
2021/10/01 04:52:55;;;;;;;7.07;4.88;;;17.90;96.70;;;;;;5098599;28;20063;-78
2021/10/01 04:55:28;;;;;;;6.95;4.10;;;17.90;96.70;;;;;;5083544;28;20094;-77
2021/10/01 04:57:57;;;;;;;6.72;4.53;;;17.90;96.70;;;;;;5084753;28;20047;-77
2021/10/01 05:00:44;;;;;;;7.10;4.90;;;18.00;96.70;;;;;;5083461;28;20054;-78
2021/10/01 05:03:38;;;;;;;6.15;5.07;;;18.00;96.70;;;;;;5102699;28;20049;-77
2021/10/01 05:06:25;;;;;;;7.07;5.13;;;18.00;96.70;;;;;;5099846;28;20055;-78
2021/10/01 05:09:14;;;;;;;9.30;6.05;;;18.00;96.70;;;;;;5084974;28;20508;-77
2021/10/01 05:12:03;;;;;;;7.70;5.20;;;18.10;96.70;;;;;;5101595;28;20043;-77
2021/10/01 05:14:50;;;;;;;9.18;5.20;;;18.10;96.70;;;;;;5087516;28;20504;-77
2021/10/01 05:17:41;;;;;;;14.45;5.90;;;18.10;96.70;;;;;;5050242;28;20089;-77
2021/10/01 05:20:43;;;;;;;11.90;5.63;;;18.10;96.70;;;;;;5045404;28;20128;-78
2021/10/01 05:23:28;;;;;;;8.57;5.18;;;18.20;96.70;;;;;;5085196;28;20046;-78
2021/10/01 05:25:56;;;;;;;10.90;5.05;;;18.20;96.70;;;;;;5083262;28;20419;-78
2021/10/01 05:28:26;;;;;;;12.60;5.20;;;18.10;96.70;;;;;;5083512;28;20070;-78
2021/10/01 05:30:55;;;;;;;7.32;4.55;;;18.10;96.70;;;;;;5084901;28;20126;-78
2021/10/01 05:33:24;;;;;;;7.07;4.60;;;18.10;96.70;;;;;;5083382;28;20413;-78
2021/10/01 05:35:57;;;;;;;8.10;4.75;;;18.20;96.70;;;;;;5067845;28;20040;-78
2021/10/01 05:38:26;;;;;;;8.90;4.00;;;18.10;96.70;;;;;;5066760;28;20501;-77
2021/10/01 05:40:55;;;;;;;9.10;4.45;;;18.10;96.70;;;;;;5063983;28;20076;-77
2021/10/01 05:43:24;;;;;;;5.55;4.28;;;18.10;96.70;;;;;;5067209;28;20059;-78
2021/10/01 05:45:57;;;;;;;5.53;4.05;;;18.20;96.70;;;;;;5084957;28;20043;-78
2021/10/01 05:48:50;;;;;;;7.13;3.88;;;18.20;96.70;;;;;;5102832;28;20096;-78
2021/10/01 05:51:52;;;;;;;5.15;3.80;;;18.20;96.70;;;;;;5056013;28;20408;-81
2021/10/01 05:54:40;;;;;;;5.88;3.80;;;18.40;96.70;;;;;;5102856;28;20173;-82
2021/10/01 05:57:13;;;;;;;5.38;3.50;;;18.40;96.70;;;;;;5097122;28;20094;-80
2021/10/01 05:59:52;;;;;;;6.45;3.72;;;18.40;96.70;;;;;;5084189;28;20134;-80
2021/10/01 06:02:22;;;;;;;6.70;3.80;;;18.50;96.70;;;;;;5102186;28;20054;-78
2021/10/01 06:04:52;;;;;;;6.88;3.95;;;18.50;96.70;;;;;;5068030;28;20047;-79
2021/10/01 06:07:21;;;;;;;6.55;3.90;;;18.50;96.70;;;;;;5081617;28;20054;-78
2021/10/01 06:09:50;;;;;;;8.43;4.60;;;18.60;96.70;;;;;;5083258;28;20043;-76
2021/10/01 06:12:18;;;;;;;7.75;4.13;;;18.70;96.70;;;;;;5082372;28;20287;-77
2021/10/01 06:14:47;;;;;;;8.55;4.75;;;18.60;96.70;;;;;;5101921;28;20110;-76
2021/10/01 06:17:16;;;;;;;10.63;5.30;;;18.70;96.70;;;;;;5102352;28;20070;-76
2021/10/01 06:19:45;;;;;;;7.43;5.30;;;18.70;96.70;;;;;;5082936;28;20040;-76
2021/10/01 06:22:14;;;;;;;11.18;7.15;;;18.80;96.70;;;;;;5082529;28;20171;-76
2021/10/01 06:24:43;;;;;;;17.70;7.60;;;18.80;96.70;;;;;;5083595;28;20047;-78
2021/10/01 06:27:14;;;;;;;23.15;8.95;;;18.90;96.70;;;;;;5083385;28;20043;-77
2021/10/01 06:29:42;;;;;;;16.73;8.98;;;19.00;96.70;;;;;;5075688;28;20048;-77
2021/10/01 06:32:13;;;;;;;22.25;8.68;;;19.00;96.70;;;;;;5099235;28;20046;-77
2021/10/01 06:34:41;;;;;;;17.67;8.63;;;19.00;96.70;;;;;;5078529;28;20067;-77
2021/10/01 06:37:12;;;;;;;14.05;8.18;;;18.90;96.70;;;;;;5083909;28;20046;-77
2021/10/01 06:39:40;;;;;;;18.00;9.32;;;18.90;96.70;;;;;;5086050;28;20158;-77
2021/10/01 06:42:08;;;;;;;19.45;8.77;;;19.00;96.70;;;;;;5069800;28;20043;-77
2021/10/01 06:44:36;;;;;;;17.95;8.30;;;19.00;96.70;;;;;;5086627;28;20039;-77
2021/10/01 06:47:09;;;;;;;15.65;8.63;;;19.10;96.70;;;;;;5086922;28;20036;-77
2021/10/01 06:50:27;;;;;;;20.00;8.60;;;19.30;96.70;;;;;;5086798;28;20122;-76
2021/10/01 07:21:52;;;;;;;11.25;5.30;;;19.90;96.70;;;;;;5084379;28;20134;-77
2021/10/01 07:24:06;;;;;;;7.13;5.03;;;20.00;96.70;;;;;;5079604;28;20060;-77
2021/10/01 08:21:30;;;;;;;1.95;1.50;;;21.60;96.70;;;;;;5100769;28;20047;-77
2021/10/01 08:24:13;;;;;;;4.00;1.55;;;21.70;96.70;;;;;;5086106;28;20502;-77
2021/10/01 08:26:41;;;;;;;2.67;1.40;;;21.80;96.70;;;;;;5083009;28;20569;-77
2021/10/01 08:29:09;;;;;;;2.40;1.27;;;21.90;96.70;;;;;;5084189;28;20520;-78
2021/10/01 08:31:39;;;;;;;4.68;1.38;;;22.00;96.70;;;;;;5102427;28;20089;-78
2021/10/01 08:34:07;;;;;;;3.63;2.10;;;22.10;96.70;;;;;;5086041;28;20055;-77
2021/10/01 08:36:36;;;;;;;3.60;1.63;;;22.20;96.70;;;;;;5102552;28;20564;-77
2021/10/01 08:39:11;;;;;;;4.28;1.50;;;22.30;96.70;;;;;;5082542;28;20058;-77
2021/10/01 08:41:40;;;;;;;2.95;1.30;;;22.40;96.70;;;;;;5066314;28;20081;-77
2021/10/01 08:44:09;;;;;;;2.60;1.40;;;22.40;96.70;;;;;;5085625;28;20562;-77
2021/10/01 08:46:39;;;;;;;3.85;1.10;;;22.50;96.70;;;;;;5082817;28;20063;-78
2021/10/01 08:49:08;;;;;;;3.03;1.45;;;22.50;96.70;;;;;;5085573;28;20085;-78
2021/10/01 08:51:37;;;;;;;3.08;1.25;;;22.50;96.70;;;;;;5083228;28;20048;-76
2021/10/01 08:54:05;;;;;;;4.63;1.42;;;22.50;96.70;;;;;;5084869;28;20512;-76
2021/10/01 08:56:34;;;;;;;4.03;1.10;;;22.70;96.70;;;;;;5081169;28;20040;-76
2021/10/01 08:59:02;;;;;;;3.58;1.63;;;22.80;96.70;;;;;;5103368;28;20040;-76
2021/10/01 09:01:31;;;;;;;4.88;1.52;;;22.80;96.70;;;;;;5083391;28;20138;-76
2021/10/01 09:04:01;;;;;;;3.03;1.50;;;23.00;96.70;;;;;;5084134;28;20054;-78
2021/10/01 09:06:30;;;;;;;3.85;1.40;;;23.00;96.70;;;;;;5080976;28;20533;-78
2021/10/01 09:09:05;;;;;;;5.05;1.63;;;23.00;96.70;;;;;;5079521;28;20043;-78
2021/10/01 09:11:35;;;;;;;2.67;1.40;;;23.00;96.70;;;;;;5081984;28;20281;-78
2021/10/01 09:14:05;;;;;;;2.45;1.30;;;23.00;96.70;;;;;;5103157;28;20035;-77
2021/10/01 09:16:33;;;;;;;2.22;1.30;;;23.10;96.70;;;;;;5096902;28;20054;-79
2021/10/01 09:19:04;;;;;;;2.53;1.10;;;23.30;96.70;;;;;;5104442;28;20070;-78
2021/10/01 09:21:41;;;;;;;5.18;1.02;;;23.40;96.70;;;;;;5082388;28;20400;-78
2021/10/01 09:24:12;;;;;;;5.53;1.38;;;23.30;96.70;;;;;;5083043;28;20377;-78
2021/10/01 09:26:52;;;;;;;3.03;1.13;;;23.40;96.70;;;;;;5099052;28;20996;-79
2021/10/01 09:29:26;;;;;;;2.28;1.10;;;23.60;96.70;;;;;;5083002;28;20052;-78
2021/10/01 09:31:55;;;;;;;1.65;1.05;;;23.70;96.70;;;;;;5103808;28;20118;-78
2021/10/01 09:34:37;;;;;;;3.45;1.13;;;23.60;96.70;;;;;;5080363;28;20056;-78
2021/10/01 09:37:07;;;;;;;2.40;1.00;;;23.80;96.70;;;;;;5078350;28;20040;-78
2021/10/01 09:39:37;;;;;;;3.35;1.00;;;23.80;96.70;;;;;;5083570;28;20381;-78
2021/10/01 09:42:18;;;;;;;3.50;1.08;;;24.00;96.70;;;;;;5086212;28;20051;-79
2021/10/01 09:44:48;;;;;;;2.83;1.13;;;24.10;96.70;;;;;;5101932;28;20461;-79
2021/10/01 09:47:22;;;;;;;4.70;1.17;;;24.10;96.70;;;;;;5084351;28;20035;-79
2021/10/01 09:49:59;;;;;;;2.65;1.00;;;24.20;96.70;;;;;;5101946;28;20060;-79
2021/10/01 09:52:42;;;;;;;1.67;0.65;;;24.40;96.70;;;;;;5102999;28;20046;-78
2021/10/01 09:55:11;;;;;;;3.15;1.10;;;24.20;96.70;;;;;;5080141;28;20050;-78
2021/10/01 09:57:57;;;;;;;3.72;1.10;;;24.30;96.70;;;;;;5068526;28;20044;-78
2021/10/01 10:00:35;;;;;;;6.80;1.60;;;24.50;96.50;;;;;;5083815;28;20071;-78
2021/10/01 10:03:03;;;;;;;1.80;0.70;;;24.60;96.50;;;;;;5082843;28;20027;-78
2021/10/01 10:05:56;;;;;;;1.30;0.90;;;24.70;95.60;;;;;;5067837;28;20043;-78
2021/10/01 10:08:27;;;;;;;2.63;0.80;;;24.80;94.50;;;;;;5077765;28;20105;-79
2021/10/01 10:10:56;;;;;;;2.50;0.85;;;24.80;94.40;;;;;;5103254;28;20424;-79
2021/10/01 10:13:44;;;;;;;1.42;0.77;;;24.90;93.40;;;;;;5086730;28;20043;-78
2021/10/01 10:16:14;;;;;;;2.25;0.70;;;24.90;93.10;;;;;;5087667;28;20489;-77
2021/10/01 10:18:43;;;;;;;3.03;0.85;;;25.00;93.60;;;;;;5086592;28;20108;-77
2021/10/01 10:21:14;;;;;;;1.27;0.57;;;25.20;92.20;;;;;;5105001;28;20036;-77
2021/10/01 10:23:44;;;;;;;3.70;1.10;;;25.30;91.30;;;;;;5084520;28;20044;-78
2021/10/01 10:26:12;;;;;;;2.13;1.00;;;25.30;91.10;;;;;;5087206;28;20067;-77
2021/10/01 10:28:43;;;;;;;1.98;1.00;;;25.40;90.50;;;;;;5105781;28;20438;-77
2021/10/01 10:31:13;;;;;;;2.80;1.00;;;25.50;90.50;;;;;;5087329;28;20411;-77
2021/10/01 10:33:43;;;;;;;2.53;1.05;;;25.50;90.00;;;;;;5082736;28;20074;-78
2021/10/01 10:36:36;;;;;;;2.10;0.85;;;25.60;89.50;;;;;;5089691;28;20048;-78
2021/10/01 10:39:49;;;;;;;1.58;0.80;;;25.70;89.70;;;;;;5105567;28;20035;-78
2021/10/01 10:42:32;;;;;;;3.20;0.90;;;25.80;88.30;;;;;;5065888;28;20055;-77
2021/10/01 10:45:14;;;;;;;1.33;0.88;;;25.70;89.40;;;;;;5104049;28;20104;-78
2021/10/01 10:47:54;;;;;;;2.58;1.30;;;25.70;89.80;;;;;;5087125;28;20427;-78
2021/10/01 10:50:46;;;;;;;2.30;1.42;;;25.80;88.80;;;;;;5085719;28;20134;-78
2021/10/01 10:53:28;;;;;;;2.00;1.20;;;25.90;89.70;;;;;;5086896;28;20054;-78
2021/10/01 10:56:00;;;;;;;1.65;1.23;;;26.00;88.60;;;;;;5084793;28;20099;-76
2021/10/01 10:58:49;;;;;;;3.10;1.33;;;26.10;88.80;;;;;;5086347;28;20443;-76
2021/10/01 11:01:29;;;;;;;2.03;1.00;;;26.00;87.80;;;;;;5104984;28;20039;-77
2021/10/01 11:04:27;;;;;;;4.88;1.48;;;26.10;88.40;;;;;;5105764;28;20096;-77
2021/10/01 11:06:55;;;;;;;1.70;1.27;;;26.20;88.40;;;;;;5084713;28;20821;-76
2021/10/01 11:09:29;;;;;;;4.53;1.33;;;26.20;89.10;;;;;;5105766;28;20055;-77
2021/10/01 11:12:22;;;;;;;2.10;1.38;;;26.30;89.10;;;;;;5099513;28;20050;-77
2021/10/01 11:15:20;;;;;;;3.28;1.55;;;26.40;88.10;;;;;;5083293;28;20039;-77
2021/10/01 11:18:14;;;;;;;2.63;1.58;;;26.30;87.80;;;;;;5015134;28;20064;-77
2021/10/01 11:20:42;;;;;;;5.22;1.75;;;26.20;87.70;;;;;;5003368;28;20396;-77
2021/10/01 11:23:15;;;;;;;3.55;1.58;;;26.30;88.40;;;;;;5004309;28;20056;-77
2021/10/01 11:25:46;;;;;;;2.55;1.52;;;26.20;87.90;;;;;;5002597;28;20466;-76
2021/10/01 11:28:14;;;;;;;2.55;1.40;;;26.40;88.20;;;;;;5019112;28;20042;-78
2021/10/01 11:30:50;;;;;;;3.05;1.80;;;26.60;88.00;;;;;;5018156;28;20045;-78
2021/10/01 11:33:19;;;;;;;2.70;1.50;;;26.70;87.30;;;;;;5005338;28;20084;-78
2021/10/01 11:35:50;;;;;;;1.70;1.48;;;26.70;86.20;;;;;;5019215;28;20037;-78
2021/10/01 11:38:23;;;;;;;2.95;1.77;;;26.70;87.10;;;;;;5003666;28;20095;-77
2021/10/01 11:41:06;;;;;;;4.63;1.73;;;26.60;86.90;;;;;;5008217;28;20128;-77
2021/10/01 11:43:45;;;;;;;2.00;1.65;;;26.70;86.30;;;;;;5020736;28;20648;-77
2021/10/01 11:46:19;;;;;;;2.08;1.58;;;26.90;85.70;;;;;;5019039;28;20057;-78
2021/10/01 11:48:47;;;;;;;1.92;1.52;;;26.90;85.80;;;;;;4997549;28;20041;-78
2021/10/01 11:51:15;;;;;;;2.33;1.23;;;26.90;85.80;;;;;;5015949;28;20043;-79
2021/10/01 11:53:43;;;;;;;1.92;1.70;;;27.00;85.70;;;;;;5085527;28;20508;-79
2021/10/01 11:56:13;;;;;;;1.67;1.50;;;27.10;85.20;;;;;;5085990;28;20212;-78
2021/10/01 11:58:41;;;;;;;2.15;1.30;;;27.10;86.00;;;;;;5083883;28;20131;-78
2021/10/01 12:01:11;;;;;;;2.17;1.80;;;27.20;86.00;;;;;;5086222;28;20131;-78
2021/10/01 12:03:58;;;;;;;3.10;1.55;;;27.30;85.10;;;;;;5079534;28;20067;-78
2021/10/01 12:06:35;;;;;;;1.70;1.60;;;27.40;84.50;;;;;;5101802;28;20044;-80
2021/10/01 12:09:05;;;;;;;2.58;1.77;;;27.60;84.20;;;;;;5103010;28;20047;-80
2021/10/01 12:11:37;;;;;;;2.63;1.67;;;27.60;84.10;;;;;;5080787;28;20043;-77
2021/10/01 12:14:10;;;;;;;2.17;1.80;;;27.60;84.20;;;;;;5084255;28;20097;-78
2021/10/01 12:16:39;;;;;;;3.47;1.80;;;27.80;83.90;;;;;;5103784;28;20036;-78
2021/10/01 12:19:08;;;;;;;2.50;1.95;;;28.00;84.10;;;;;;5083354;28;20127;-77
2021/10/01 12:21:36;;;;;;;1.55;1.45;;;28.10;83.00;;;;;;5104289;28;20035;-78
2021/10/01 12:24:13;;;;;;;2.10;1.90;;;27.90;83.50;;;;;;5088196;28;20047;-78
2021/10/01 12:26:44;;;;;;;2.00;1.80;;;28.00;82.00;;;;;;5084643;28;20047;-78
2021/10/01 12:29:14;;;;;;;2.72;1.60;;;28.00;82.20;;;;;;5085104;28;20051;-78
2021/10/01 12:31:46;;;;;;;2.92;2.10;;;28.00;82.70;;;;;;5103414;27;20127;-77
2021/10/01 12:34:18;;;;;;;2.97;2.00;;;28.00;82.60;;;;;;5084614;28;20055;-77
2021/10/01 12:36:49;;;;;;;2.33;2.10;;;28.10;83.10;;;;;;5085153;28;20059;-78
2021/10/01 12:39:17;;;;;;;3.00;2.15;;;28.10;83.00;;;;;;5096368;28;20050;-77
2021/10/01 12:41:54;;;;;;;4.65;2.25;;;28.30;83.00;;;;;;5085371;28;20047;-78
2021/10/01 12:44:23;;;;;;;2.90;2.15;;;28.20;82.10;;;;;;5104081;28;20142;-78
2021/10/01 12:46:54;;;;;;;2.33;1.90;;;28.20;81.20;;;;;;5102025;27;20343;-78
2021/10/01 12:49:27;;;;;;;2.60;2.10;;;28.10;82.00;;;;;;5101109;28;20043;-78
2021/10/01 12:52:08;;;;;;;3.47;1.85;;;28.00;82.20;;;;;;5102422;28;20593;-78
2021/10/01 12:54:43;;;;;;;1.80;1.70;;;28.10;82.40;;;;;;5099745;28;20032;-78
2021/10/01 12:57:19;;;;;;;3.85;1.80;;;28.10;82.50;;;;;;5079476;28;20044;-85
2021/10/01 12:59:49;;;;;;;2.10;1.90;;;28.20;82.80;;;;;;5086236;28;20050;-83
2021/10/01 13:02:20;;;;;;;2.90;2.33;;;28.50;82.70;;;;;;5082649;28;20036;-82
2021/10/01 13:04:53;;;;;;;2.25;2.05;;;28.50;81.90;;;;;;5104064;28;20126;-83
2021/10/01 13:07:25;;;;;;;2.47;1.88;;;28.50;82.10;;;;;;5103685;28;20092;-82
2021/10/01 13:09:55;;;;;;;3.25;1.92;;;28.50;82.50;;;;;;5108251;27;20150;-81
2021/10/01 13:12:34;;;;;;;2.85;1.80;;;28.50;81.90;;;;;;5082443;28;20051;-81
2021/10/01 13:15:15;;;;;;;2.40;2.20;;;28.40;81.00;;;;;;5084577;28;20686;-81
2021/10/01 13:17:57;;;;;;;3.63;2.05;;;28.40;81.50;;;;;;5080092;28;20643;-78
2021/10/01 13:20:27;;;;;;;2.20;2.00;;;28.50;82.10;;;;;;5081716;28;20069;-78
2021/10/01 13:23:00;;;;;;;2.75;2.20;;;28.60;82.60;;;;;;5084857;28;20051;-78
2021/10/01 13:25:31;;;;;;;2.97;2.03;;;28.80;82.30;;;;;;5099462;28;20223;-78
2021/10/01 13:28:03;;;;;;;4.28;2.63;;;28.80;81.90;;;;;;5085329;28;20051;-78
2021/10/01 13:30:32;;;;;;;3.53;2.33;;;28.80;82.60;;;;;;5083065;28;20048;-78
2021/10/01 13:33:00;;;;;;;3.33;3.03;;;28.80;82.50;;;;;;5085635;28;20036;-78
2021/10/01 13:35:29;;;;;;;3.17;2.35;;;28.70;81.50;;;;;;5083132;28;20569;-78
2021/10/01 13:37:58;;;;;;;3.58;2.33;;;28.80;82.30;;;;;;5067340;28;20501;-78
2021/10/01 13:40:26;;;;;;;3.63;2.45;;;28.70;81.60;;;;;;5101592;28;20036;-78
2021/10/01 13:42:54;;;;;;;3.13;2.15;;;28.60;81.60;;;;;;5087077;28;20562;-78
2021/10/01 13:45:24;;;;;;;4.35;2.30;;;28.50;82.10;;;;;;5101586;28;20115;-82
2021/10/01 13:47:52;;;;;;;4.18;2.40;;;28.60;82.40;;;;;;5088400;28;20130;-82
2021/10/01 13:50:20;;;;;;;2.72;2.15;;;28.70;82.10;;;;;;5085935;28;20342;-82
2021/10/01 13:52:49;;;;;;;3.63;2.20;;;28.60;81.60;;;;;;5086488;28;20052;-77
2021/10/01 13:55:17;;;;;;;4.60;2.40;;;28.60;81.60;;;;;;5106776;28;20531;-77
2021/10/01 13:57:48;;;;;;;2.65;2.30;;;28.70;81.90;;;;;;5107123;28;20105;-78
2021/10/01 14:00:19;;;;;;;4.43;2.33;;;28.80;82.20;;;;;;5106354;28;20042;-78
2021/10/01 14:02:48;;;;;;;3.60;2.10;;;28.90;81.10;;;;;;5071272;28;20044;-78
2021/10/01 14:05:17;;;;;;;4.75;2.55;;;29.00;81.60;;;;;;5084038;28;20039;-78
2021/10/01 14:07:46;;;;;;;3.80;2.35;;;29.10;82.00;;;;;;5103301;28;20515;-79
2021/10/01 14:10:21;;;;;;;3.22;2.60;;;29.20;81.40;;;;;;5107904;28;20035;-77
2021/10/01 14:12:50;;;;;;;2.40;2.20;;;29.40;81.30;;;;;;5104324;28;20039;-77
2021/10/01 14:15:19;;;;;;;4.90;2.63;;;29.50;79.70;;;;;;5087087;28;20040;-79
2021/10/01 14:17:49;;;;;;;3.35;2.45;;;29.60;80.00;;;;;;5087120;28;20039;-79
2021/10/01 14:20:20;;;;;;;2.95;2.28;;;29.90;80.10;;;;;;5106840;28;20050;-80
2021/10/01 14:22:49;;;;;;;2.90;2.17;;;30.10;79.10;;;;;;5086825;28;20422;-79
2021/10/01 14:25:19;;;;;;;3.17;2.40;;;30.30;78.80;;;;;;5106798;28;20035;-78
2021/10/01 14:27:47;;;;;;;2.20;2.00;;;30.50;78.50;;;;;;5085287;28;20411;-78
2021/10/01 14:30:18;;;;;;;5.63;2.80;;;30.60;77.40;;;;;;5083183;28;20050;-77
2021/10/01 14:32:48;;;;;;;4.03;2.70;;;30.80;77.00;;;;;;5101991;27;20528;-77
2021/10/01 14:35:34;;;;;;;3.30;2.50;;;31.00;76.10;;;;;;5106280;28;20039;-78
2021/10/01 14:38:07;;;;;;;5.50;2.17;;;31.20;77.10;;;;;;5086180;28;20039;-78
2021/10/01 14:40:36;;;;;;;5.72;2.45;;;31.30;75.70;;;;;;5087003;28;20049;-78
2021/10/01 14:43:20;;;;;;;2.38;2.13;;;31.80;76.00;;;;;;5086117;28;20048;-77
2021/10/01 14:45:49;;;;;;;3.70;2.22;;;32.20;74.90;;;;;;5087541;28;20048;-78